Wilson Gdynia — 8PSA — position and weather

sailwx.info

Track history (hours):
 
Tides and Currents Weather Stations Pressure Air Temp Water Temp Dewpoint Dewpoint Depression Visibility Wind Speed Wind Dir Waves Ship Positions

Wilson Gdynia

Last reported at 2016-Dec-05 01:33 UTC. Time now 2016-Dec-05 02:22 UTC.
Position N 53°46' E 005°59'.

Length 88 m; draft 5.6 m.

Type: Cargo ship. MMSI: 314192000.

Date/timePositionNaut miles runAvg speedWind from/ knotsBaromVisibWave heightAir tempDewpointWater temp
2016-Dec-05 01:33N 53°46' E 005°59'10 9.7
2016-Dec-05 00:33N 53°48' E 006°15'11 8.6
2016-Dec-04 23:19N 53°51' E 006°32'37 9.7
2016-Dec-04 19:30N 54°00' E 007°33'1010.7
2016-Dec-04 18:33N 54°02' E 007°51'1111.2
2016-Dec-04 17:33N 54°01' E 008°10'1212.0
2016-Dec-04 16:33N 53°59' E 008°29'10 9.8
2016-Dec-04 15:33N 53°53' E 008°43'8 7.8
2016-Dec-04 14:33N 53°51' E 008°56'8 7.7
2016-Dec-04 13:34N 53°53' E 009°08'2 1.6
2016-Dec-04 12:33N 53°54' E 009°10'8 8.1
2016-Dec-04 11:33N 54°01' E 009°18'15 7.6
2016-Dec-04 09:33N 54°13' E 009°35'7 7.5
2016-Dec-04 08:34N 54°18' E 009°43'7 7.2
2016-Dec-04 07:33N 54°21' E 009°54'6 5.8
2016-Dec-04 06:33N 54°22' E 010°04'3 2.7
2016-Dec-04 05:33N 54°22' E 010°09'4 4.1
2016-Dec-04 04:33N 54°25' E 010°13'9 9.4
2016-Dec-04 03:33N 54°32' E 010°24'10 9.8
2016-Dec-04 02:33N 54°35' E 010°40'10 9.8
2016-Dec-04 01:33N 54°36' E 010°57'9 9.1
2016-Dec-04 00:33N 54°35' E 011°13'8 8.4
2016-Dec-03 23:33N 54°32' E 011°26'17 8.7
2016-Dec-03 21:33N 54°26' E 011°55'9 8.6
2016-Dec-03 20:33N 54°28' E 012°09'9 9.4
2016-Dec-03 19:33N 54°37' E 012°15'57 9.5
2016-Dec-03 13:33N 54°60' E 013°46'10 9.6
2016-Dec-03 12:33N 55°03' E 014°02'9 9.5
2016-Dec-03 11:33N 55°10' E 014°14'1010.0
2016-Dec-03 10:33N 55°18' E 014°24'1010.1
2016-Dec-03 09:33N 55°25' E 014°36'10 9.7
2016-Dec-03 08:33N 55°27' E 014°53'10 9.5
2016-Dec-03 07:33N 55°27' E 015°09'9 9.2
2016-Dec-03 06:33N 55°28' E 015°26'11 9.2
2016-Dec-03 05:24N 55°29' E 015°44'  
2016-Nov-26 18:33N 55°51' E 014°52'9 9.3
2016-Nov-26 17:33N 55°42' E 014°49'9 8.9
2016-Nov-26 16:34N 55°33' E 014°45'9 8.7
2016-Nov-26 15:34N 55°25' E 014°41'9 9.0
2016-Nov-26 14:33N 55°18' E 014°32'9 8.7
2016-Nov-26 13:33N 55°11' E 014°23'9 8.7
2016-Nov-26 12:33N 55°04' E 014°13'9 8.9
2016-Nov-26 11:33N 54°59' E 014°00'10 9.8
2016-Nov-26 10:32N 54°56' E 013°44'3010.1
2016-Nov-26 07:33N 54°46' E 012°54'1010.2
2016-Nov-26 06:33N 54°42' E 012°38'1110.6
2016-Nov-26 05:33N 54°36' E 012°23'1010.4
2016-Nov-26 04:33N 54°27' E 012°14'10 9.9
2016-Nov-26 03:33N 54°24' E 011°58'1110.6
2016-Nov-26 02:33N 54°27' E 011°40'1111.1
2016-Nov-26 01:33N 54°31' E 011°22'1111.0
2016-Nov-26 00:33N 54°35' E 011°05'1110.7
2016-Nov-25 23:33N 54°34' E 010°46'1010.2
2016-Nov-25 22:33N 54°32' E 010°29'1010.0
2016-Nov-25 21:33N 54°26' E 010°15'6 5.8
2016-Nov-25 20:33N 54°22' E 010°08'4 4.0
2016-Nov-25 19:33N 54°22' E 010°02'7 7.0
2016-Nov-25 18:33N 54°22' E 009°50'23 7.5
2016-Nov-25 15:27N 54°06' E 009°20'8 8.4
2016-Nov-25 14:33N 53°59' E 009°17'7 7.3
2016-Nov-25 13:33N 53°54' E 009°09'2 1.5
2016-Nov-25 12:34N 53°53' E 009°06'1 0.8
2016-Nov-25 11:33N 53°53' E 009°05'9 9.2
2016-Nov-25 10:33N 53°50' E 008°50'1110.1
2016-Nov-25 09:26N 53°58' E 008°36'1010.2
2016-Nov-25 08:28N 53°59' E 008°19'1010.2
2016-Nov-25 07:28N 54°01' E 008°02'  
Track history (hours):
 
Tides and Currents Weather Stations Pressure Air Temp Water Temp Dewpoint Dewpoint Depression Visibility Wind Speed Wind Dir Waves Ship Positions

Wilson Gdynia

Last reported at 2016-Dec-05 01:33 UTC. Time now 2016-Dec-05 02:22 UTC.
Position N 53°46' E 005°59'.

Length 88 m; draft 5.6 m.

Type: Cargo ship. MMSI: 314192000.

Date/timePositionNaut miles runAvg speedWind from/ knotsBaromVisibWave heightAir tempDewpointWater temp
2016-Dec-05 01:33N 53°46' E 005°59'10 9.7
2016-Dec-05 00:33N 53°48' E 006°15'11 8.6
2016-Dec-04 23:19N 53°51' E 006°32'37 9.7
2016-Dec-04 19:30N 54°00' E 007°33'1010.7
2016-Dec-04 18:33N 54°02' E 007°51'1111.2
2016-Dec-04 17:33N 54°01' E 008°10'1212.0
2016-Dec-04 16:33N 53°59' E 008°29'10 9.8
2016-Dec-04 15:33N 53°53' E 008°43'8 7.8
2016-Dec-04 14:33N 53°51' E 008°56'8 7.7
2016-Dec-04 13:34N 53°53' E 009°08'2 1.6
2016-Dec-04 12:33N 53°54' E 009°10'8 8.1
2016-Dec-04 11:33N 54°01' E 009°18'15 7.6
2016-Dec-04 09:33N 54°13' E 009°35'7 7.5
2016-Dec-04 08:34N 54°18' E 009°43'7 7.2
2016-Dec-04 07:33N 54°21' E 009°54'6 5.8
2016-Dec-04 06:33N 54°22' E 010°04'3 2.7
2016-Dec-04 05:33N 54°22' E 010°09'4 4.1
2016-Dec-04 04:33N 54°25' E 010°13'9 9.4
2016-Dec-04 03:33N 54°32' E 010°24'10 9.8
2016-Dec-04 02:33N 54°35' E 010°40'10 9.8
2016-Dec-04 01:33N 54°36' E 010°57'9 9.1
2016-Dec-04 00:33N 54°35' E 011°13'8 8.4
2016-Dec-03 23:33N 54°32' E 011°26'17 8.7
2016-Dec-03 21:33N 54°26' E 011°55'9 8.6
2016-Dec-03 20:33N 54°28' E 012°09'9 9.4
2016-Dec-03 19:33N 54°37' E 012°15'57 9.5
2016-Dec-03 13:33N 54°60' E 013°46'10 9.6
2016-Dec-03 12:33N 55°03' E 014°02'9 9.5
2016-Dec-03 11:33N 55°10' E 014°14'1010.0
2016-Dec-03 10:33N 55°18' E 014°24'1010.1
2016-Dec-03 09:33N 55°25' E 014°36'10 9.7
2016-Dec-03 08:33N 55°27' E 014°53'10 9.5
2016-Dec-03 07:33N 55°27' E 015°09'9 9.2
2016-Dec-03 06:33N 55°28' E 015°26'11 9.2
2016-Dec-03 05:24N 55°29' E 015°44'  
2016-Nov-26 18:33N 55°51' E 014°52'9 9.3
2016-Nov-26 17:33N 55°42' E 014°49'9 8.9
2016-Nov-26 16:34N 55°33' E 014°45'9 8.7
2016-Nov-26 15:34N 55°25' E 014°41'9 9.0
2016-Nov-26 14:33N 55°18' E 014°32'9 8.7
2016-Nov-26 13:33N 55°11' E 014°23'9 8.7
2016-Nov-26 12:33N 55°04' E 014°13'9 8.9
2016-Nov-26 11:33N 54°59' E 014°00'10 9.8
2016-Nov-26 10:32N 54°56' E 013°44'3010.1
2016-Nov-26 07:33N 54°46' E 012°54'1010.2
2016-Nov-26 06:33N 54°42' E 012°38'1110.6
2016-Nov-26 05:33N 54°36' E 012°23'1010.4
2016-Nov-26 04:33N 54°27' E 012°14'10 9.9
2016-Nov-26 03:33N 54°24' E 011°58'1110.6
2016-Nov-26 02:33N 54°27' E 011°40'1111.1
2016-Nov-26 01:33N 54°31' E 011°22'1111.0
2016-Nov-26 00:33N 54°35' E 011°05'1110.7
2016-Nov-25 23:33N 54°34' E 010°46'1010.2
2016-Nov-25 22:33N 54°32' E 010°29'1010.0
2016-Nov-25 21:33N 54°26' E 010°15'6 5.8
2016-Nov-25 20:33N 54°22' E 010°08'4 4.0
2016-Nov-25 19:33N 54°22' E 010°02'7 7.0
2016-Nov-25 18:33N 54°22' E 009°50'23 7.5
2016-Nov-25 15:27N 54°06' E 009°20'8 8.4
2016-Nov-25 14:33N 53°59' E 009°17'7 7.3
2016-Nov-25 13:33N 53°54' E 009°09'2 1.5
2016-Nov-25 12:34N 53°53' E 009°06'1 0.8
2016-Nov-25 11:33N 53°53' E 009°05'9 9.2
2016-Nov-25 10:33N 53°50' E 008°50'1110.1
2016-Nov-25 09:26N 53°58' E 008°36'1010.2
2016-Nov-25 08:28N 53°59' E 008°19'1010.2
2016-Nov-25 07:28N 54°01' E 008°02'  

Dump ship's entire track history